Aérodrome :
LOGIN :

S'inscrire | Disclaimer

   EN    FR    IT 

 










Légende :    VFR   VFR Marginal   IFR   IFR Intensif   IFR Très Intensif
Visi : 
Plafond : 
>= 8 km
>= 3000ft
5 à 8 km
1000 à 3000 ft
1500m à 5 km
500 à 1000 ft
800 à 1500m
200 à 500 ft
< 800m
< 200 ft
Symboles :   Orages  Brouillard  Fortes neiges  Fortes précipitations  Vent > 20 kt
SIGMETs :   Divers  Orages  Givrage  Turbulence  Onde Orograph.  Cendres Volcan.







- Altitude de l'aérodrome : 1302 ft
- Code IATA : GNB
- Voir les cartes d'approche


LFLS - Grenoble / St. Geoirs

DERNIER METAR :
  • 190200Z AUTO 09007KT CAVOK M00/M02 Q1022

METARs EXPIRÉS :
  • 190130Z AUTO 09006KT CAVOK 00/M01 Q1022
  • 190100Z AUTO 07005KT 9000 NSC 00/M01 Q1023
  • 190030Z AUTO 06003KT CAVOK 02/01 Q1023
  • 190000Z AUTO 10003KT CAVOK 02/00 Q1023
  • 182330Z AUTO VRB02KT CAVOK 04/01 Q1022

TAF TAF LFLS
Valide du 18 à 15h jusqu'au 19 à 15h UTC


181400Z 1815/1915 22014KT CAVOK
TEMPO 1821/1904 BKN015
BECMG 1900/1903 09004KT
PROB30
TEMPO 1904/1908 2500 BR BKN008
BECMG 1908/1911 27005KT BKN020
ATIS : +33 4 76 65 55 89
Pas de NOTAMs connus pour ce terrain.



MET'MAP, la Météo Aéronautique d'un coup d'oeil ! - Copyright ORBIFLY Décembre 2007 - Disclaimer

ORBIFLY MET'MAP TEAM :

Programmation & Développement : Alexandra Zaïnal
Conception & Développement : Baudouin d'Aumeries
Co-Programmation & Développement : Marc-Olivier Méhu
Soutien technique & logistique : Manuel Goepfert

Contact : metmap@orbifly.com




SOURCES & CREDITS :

   NOAA